Time;durP1;ratioP1;P1;durP2;ratioP2;P2;SDS_P1;SDS_P2;PMS_P1;PMS_P2;Temp;Humidity;BMP_temperature;BMP_pressure;BME280_temperature;BME280_humidity;BME280_pressure;Samples;Min_cycle;Max_cycle;Signal;HPM_P1;HPM_P2
2023/08/20 00:01:32;;;;;;;16.10;8.77;;;;;;;17.67;100.00;101920.09;5029072;28;20073;-62
2023/08/20 00:04:00;;;;;;;14.75;8.88;;;;;;;17.64;100.00;101916.81;5028954;28;20045;-62
2023/08/20 00:06:29;;;;;;;16.52;9.15;;;;;;;17.68;100.00;101916.47;5026523;28;20123;-63
2023/08/20 00:08:57;;;;;;;18.08;8.52;;;;;;;17.69;100.00;101915.50;5025945;28;20477;-62
2023/08/20 00:11:26;;;;;;;14.75;8.50;;;;;;;17.74;100.00;101921.31;5028748;28;20061;-63
2023/08/20 00:13:54;;;;;;;13.13;8.30;;;;;;;17.73;100.00;101924.09;5026562;28;20060;-62
2023/08/20 00:16:24;;;;;;;12.68;8.45;;;;;;;17.73;100.00;101922.25;5026836;28;20068;-61
2023/08/20 00:18:53;;;;;;;12.77;8.15;;;;;;;17.76;100.00;101917.69;5011564;28;20042;-62
2023/08/20 00:21:21;;;;;;;15.57;8.15;;;;;;;17.74;100.00;101918.63;5015829;28;20045;-62
2023/08/20 00:23:50;;;;;;;11.45;7.75;;;;;;;17.79;100.00;101912.09;5012249;28;20831;-62
2023/08/20 00:26:19;;;;;;;13.82;8.35;;;;;;;17.81;100.00;101915.50;5011807;28;20041;-62
2023/08/20 00:28:47;;;;;;;13.88;8.32;;;;;;;17.83;100.00;101910.91;5014969;28;20108;-62
2023/08/20 00:31:15;;;;;;;14.80;7.47;;;;;;;17.84;100.00;101917.91;5015053;28;20046;-62
2023/08/20 00:33:47;;;;;;;13.55;7.75;;;;;;;17.86;100.00;101915.97;5013262;28;20038;-62
2023/08/20 00:36:33;;;;;;;13.07;7.13;;;;;;;17.91;100.00;101919.13;5026350;28;20054;-62
2023/08/20 00:39:01;;;;;;;14.50;7.78;;;;;;;17.87;100.00;101912.34;5014513;28;20046;-62
2023/08/20 00:41:30;;;;;;;12.57;7.38;;;;;;;17.89;100.00;101911.25;5014215;28;20548;-62
2023/08/20 00:43:58;;;;;;;13.45;7.88;;;;;;;17.85;100.00;101906.31;5011598;28;20664;-62
2023/08/20 00:46:26;;;;;;;13.13;7.75;;;;;;;17.82;100.00;101910.06;5011490;28;20052;-62
2023/08/20 00:48:57;;;;;;;15.27;7.78;;;;;;;17.82;100.00;101917.19;5011636;28;20050;-63
2023/08/20 00:51:26;;;;;;;13.80;7.90;;;;;;;17.82;100.00;101922.50;5011327;28;20048;-62
2023/08/20 00:53:54;;;;;;;12.65;7.45;;;;;;;17.78;100.00;101924.56;5025533;28;20042;-62
2023/08/20 00:56:23;;;;;;;12.05;7.65;;;;;;;17.77;100.00;101919.38;5010698;28;20844;-62
2023/08/20 00:58:51;;;;;;;12.82;7.57;;;;;;;17.73;100.00;101916.94;5022375;28;20068;-63
2023/08/20 01:01:19;;;;;;;13.68;8.32;;;;;;;17.78;100.00;101913.06;5034306;28;20079;-62
2023/08/20 01:03:47;;;;;;;15.68;7.90;;;;;;;17.77;100.00;101909.56;5034324;28;20073;-62
2023/08/20 01:06:24;;;;;;;14.43;7.72;;;;;;;17.73;100.00;101919.59;5033857;28;20041;-62
2023/08/20 01:09:12;;;;;;;11.02;6.70;;;;;;;17.68;100.00;101923.59;5030660;28;20578;-55
2023/08/20 01:11:48;;;;;;;14.25;7.53;;;;;;;17.70;100.00;101933.16;5019183;28;20046;-55
2023/08/20 01:14:46;;;;;;;13.23;7.78;;;;;;;17.59;100.00;101930.50;5021814;28;20496;-56
2023/08/20 01:17:19;;;;;;;13.32;8.30;;;;;;;17.54;100.00;101938.81;5029787;28;20484;-56
2023/08/20 01:19:48;;;;;;;15.10;8.75;;;;;;;17.59;100.00;101935.81;5031806;28;20064;-55
2023/08/20 01:22:48;;;;;;;13.00;8.13;;;;;;;17.53;100.00;101946.91;5021227;28;20050;-55
2023/08/20 01:25:29;;;;;;;11.75;7.88;;;;;;;17.50;100.00;101955.13;5014017;28;20048;-57
2023/08/20 01:28:09;;;;;;;12.20;8.57;;;;;;;17.50;100.00;101945.34;5014136;28;20497;-56
2023/08/20 01:30:39;;;;;;;13.00;8.45;;;;;;;17.52;100.00;101947.88;5012818;28;20088;-55
2023/08/20 01:33:08;;;;;;;15.40;9.05;;;;;;;17.56;100.00;101954.63;5014411;28;20050;-55
2023/08/20 01:35:36;;;;;;;13.52;8.05;;;;;;;17.62;100.00;101958.66;5013143;28;20042;-63
2023/08/20 01:38:05;;;;;;;12.10;8.38;;;;;;;17.62;100.00;101956.84;5010629;28;20046;-63
2023/08/20 01:40:33;;;;;;;12.93;7.93;;;;;;;17.59;100.00;101962.41;5010143;28;20045;-63
2023/08/20 01:43:01;;;;;;;14.50;9.20;;;;;;;17.55;100.00;101964.44;5024476;28;20193;-63
2023/08/20 01:45:29;;;;;;;14.02;8.32;;;;;;;17.54;100.00;101972.53;5031095;28;20056;-63
2023/08/20 01:47:59;;;;;;;17.70;9.23;;;;;;;17.57;100.00;101956.34;5013127;28;20112;-63
2023/08/20 01:50:27;;;;;;;15.35;9.23;;;;;;;17.66;100.00;101963.63;5010260;28;20054;-63
2023/08/20 01:52:55;;;;;;;13.48;9.05;;;;;;;17.63;100.00;101957.69;5020648;28;20428;-63
2023/08/20 01:55:23;;;;;;;12.00;8.52;;;;;;;17.63;100.00;101963.88;5033338;28;20500;-63
2023/08/20 01:57:51;;;;;;;15.18;8.32;;;;;;;17.63;100.00;101971.84;5030838;28;20056;-63
2023/08/20 02:00:22;;;;;;;13.90;8.65;;;;;;;17.61;100.00;101973.75;5028884;28;20049;-63
2023/08/20 02:02:50;;;;;;;13.88;8.70;;;;;;;17.60;100.00;101981.88;5024697;28;20466;-63
2023/08/20 02:05:19;;;;;;;13.55;8.10;;;;;;;17.58;100.00;101981.97;5013065;28;20365;-63
2023/08/20 02:07:48;;;;;;;14.05;8.13;;;;;;;17.63;100.00;101969.19;5028399;28;20069;-63
2023/08/20 02:10:16;;;;;;;13.68;8.23;;;;;;;17.63;100.00;101973.63;5013235;28;20177;-63
2023/08/20 02:12:44;;;;;;;14.00;7.72;;;;;;;17.62;100.00;101977.28;5013199;28;20096;-63
2023/08/20 02:15:12;;;;;;;13.50;7.78;;;;;;;17.57;100.00;101975.81;5016288;28;20042;-63
2023/08/20 02:17:41;;;;;;;12.88;7.72;;;;;;;17.56;100.00;101986.56;5009215;28;20049;-63
2023/08/20 02:20:10;;;;;;;12.93;7.40;;;;;;;17.62;100.00;101983.44;5009643;28;20703;-63
2023/08/20 02:22:40;;;;;;;13.02;7.55;;;;;;;17.57;100.00;101990.91;5010962;28;20056;-63
2023/08/20 02:25:09;;;;;;;11.82;7.40;;;;;;;17.54;100.00;101988.50;5024662;28;20057;-64
2023/08/20 02:27:37;;;;;;;13.73;7.57;;;;;;;17.54;100.00;101986.69;5009100;28;20515;-63
2023/08/20 02:30:07;;;;;;;12.30;8.13;;;;;;;17.52;100.00;101982.44;5012198;28;20049;-63
2023/08/20 02:32:35;;;;;;;14.13;7.82;;;;;;;17.51;100.00;101978.94;5008748;28;20049;-63
2023/08/20 02:35:05;;;;;;;13.65;8.57;;;;;;;17.51;100.00;101984.25;5009291;28;20041;-63
2023/08/20 02:37:33;;;;;;;14.60;8.88;;;;;;;17.52;100.00;101983.31;5011452;28;20462;-63
2023/08/20 02:40:04;;;;;;;14.30;9.07;;;;;;;17.51;100.00;101986.09;5012430;28;20060;-63
2023/08/20 02:42:33;;;;;;;14.00;7.93;;;;;;;17.54;100.00;101991.16;5012053;28;20049;-63
2023/08/20 02:45:01;;;;;;;14.02;8.23;;;;;;;17.52;100.00;101991.28;5025352;28;20153;-63
2023/08/20 02:47:29;;;;;;;12.15;8.15;;;;;;;17.40;100.00;101989.56;5018045;28;20053;-63
2023/08/20 02:49:57;;;;;;;12.77;8.15;;;;;;;17.34;100.00;101990.88;5032418;28;20069;-63
2023/08/20 02:52:25;;;;;;;14.25;9.05;;;;;;;17.28;100.00;101991.34;5032214;28;20041;-63
2023/08/20 02:54:53;;;;;;;12.15;9.30;;;;;;;17.27;100.00;101988.78;5026731;28;20463;-63
2023/08/20 02:57:23;;;;;;;12.90;8.52;;;;;;;17.22;100.00;101991.81;5025270;28;20485;-64
2023/08/20 02:59:51;;;;;;;16.05;8.85;;;;;;;17.21;100.00;101995.44;5008842;28;20050;-63
2023/08/20 03:02:19;;;;;;;14.52;8.32;;;;;;;17.21;100.00;101988.28;5011033;28;20042;-54
2023/08/20 03:04:47;;;;;;;15.43;9.23;;;;;;;17.18;100.00;101979.72;5012324;28;20125;-63
2023/08/20 03:07:16;;;;;;;11.75;9.00;;;;;;;17.24;100.00;101973.94;5012751;28;20129;-55
2023/08/20 03:09:44;;;;;;;12.52;8.88;;;;;;;17.19;100.00;101976.06;5012312;28;20512;-63
2023/08/20 03:12:12;;;;;;;13.07;8.27;;;;;;;17.15;100.00;101974.63;5012972;28;20053;-63
2023/08/20 03:14:42;;;;;;;13.02;9.13;;;;;;;17.13;100.00;101971.25;5027362;28;20042;-64
2023/08/20 03:17:10;;;;;;;13.15;9.05;;;;;;;17.15;100.00;101971.94;5009697;28;20700;-63
2023/08/20 03:19:54;;;;;;;11.85;8.73;;;;;;;17.18;100.00;101967.25;5007717;28;20054;-63
2023/08/20 03:22:22;;;;;;;13.65;8.98;;;;;;;17.14;100.00;101973.78;5011492;28;20060;-63
2023/08/20 03:24:50;;;;;;;14.32;8.88;;;;;;;17.00;100.00;101963.31;5007084;28;20056;-64
2023/08/20 03:27:18;;;;;;;15.77;9.43;;;;;;;16.96;100.00;101959.19;5025503;28;20140;-64
2023/08/20 03:29:48;;;;;;;14.40;9.38;;;;;;;16.98;100.00;101960.78;5031423;28;20511;-64
2023/08/20 03:32:19;;;;;;;13.25;9.88;;;;;;;16.96;100.00;101954.75;5031512;28;21026;-63
2023/08/20 03:34:47;;;;;;;12.00;8.90;;;;;;;16.90;100.00;101955.19;5025611;28;20057;-63
2023/08/20 03:37:15;;;;;;;16.15;10.13;;;;;;;16.88;100.00;101959.75;5009467;28;20062;-63
2023/08/20 03:39:43;;;;;;;15.63;9.75;;;;;;;16.78;100.00;101969.34;5006493;28;20050;-63
2023/08/20 03:42:11;;;;;;;14.85;10.00;;;;;;;16.76;100.00;101963.34;5008331;28;20049;-63
2023/08/20 03:44:40;;;;;;;18.25;11.18;;;;;;;16.76;100.00;101960.66;5007932;28;20054;-64
2023/08/20 03:47:09;;;;;;;14.38;10.75;;;;;;;16.76;100.00;101961.50;5012177;28;20058;-63
2023/08/20 03:49:38;;;;;;;14.52;8.75;;;;;;;16.68;100.00;101964.72;5011842;28;20132;-64
2023/08/20 03:52:06;;;;;;;12.50;9.52;;;;;;;16.76;100.00;101960.66;5012884;28;20516;-63
2023/08/20 03:54:35;;;;;;;13.57;9.40;;;;;;;16.73;100.00;101965.22;5018252;28;20576;-64
2023/08/20 03:57:03;;;;;;;14.20;10.23;;;;;;;16.68;100.00;101975.34;5015750;28;20104;-64
2023/08/20 03:59:31;;;;;;;12.77;9.90;;;;;;;16.65;100.00;101977.41;5014863;28;20137;-64
2023/08/20 04:02:00;;;;;;;14.93;9.13;;;;;;;16.64;100.00;101979.19;5016185;28;20054;-64
2023/08/20 04:04:29;;;;;;;17.02;9.90;;;;;;;16.57;100.00;101977.94;5033053;28;20049;-64
2023/08/20 04:06:57;;;;;;;14.13;10.10;;;;;;;16.67;100.00;101978.94;5033623;28;20046;-64
2023/08/20 04:09:26;;;;;;;13.00;9.48;;;;;;;16.59;100.00;101986.63;5016641;28;20048;-54
2023/08/20 04:11:54;;;;;;;12.38;9.15;;;;;;;16.57;100.00;101985.91;5017709;28;20125;-54
2023/08/20 04:14:22;;;;;;;17.10;9.70;;;;;;;16.58;100.00;101992.06;5017818;28;20081;-64
2023/08/20 04:16:50;;;;;;;12.95;9.65;;;;;;;16.50;100.00;101992.63;5018064;28;20120;-65
2023/08/20 04:19:18;;;;;;;12.63;9.25;;;;;;;16.49;100.00;101996.25;5015953;28;20557;-64
2023/08/20 04:21:48;;;;;;;12.55;9.40;;;;;;;16.49;100.00;102001.56;5029795;28;20057;-65
2023/08/20 04:24:16;;;;;;;13.43;8.70;;;;;;;16.37;100.00;101998.81;5017084;28;20077;-66
2023/08/20 04:26:45;;;;;;;15.07;10.35;;;;;;;16.36;100.00;101998.91;5014456;28;20042;-66
2023/08/20 04:29:13;;;;;;;18.20;10.00;;;;;;;16.33;100.00;101997.34;5015650;28;20621;-66
2023/08/20 04:31:41;;;;;;;15.73;10.00;;;;;;;16.33;100.00;101994.69;5016317;28;20427;-65
2023/08/20 04:34:09;;;;;;;15.13;10.05;;;;;;;16.27;100.00;101995.13;5014619;28;20050;-65
2023/08/20 04:36:37;;;;;;;13.50;8.55;;;;;;;16.37;100.00;101995.31;5016819;28;20136;-65
2023/08/20 04:39:07;;;;;;;12.38;8.55;;;;;;;16.37;100.00;102001.47;5033023;28;20469;-65
2023/08/20 04:41:35;;;;;;;11.13;8.43;;;;;;;16.43;100.00;101996.66;5036443;28;20045;-65
2023/08/20 04:44:03;;;;;;;14.25;8.85;;;;;;;16.35;100.00;102000.72;5037598;28;20053;-65
2023/08/20 04:46:32;;;;;;;14.65;9.27;;;;;;;16.25;100.00;102002.31;5035566;28;20037;-65
2023/08/20 04:49:00;;;;;;;13.38;8.88;;;;;;;16.30;100.00;102004.66;5026169;28;20053;-65
2023/08/20 04:51:28;;;;;;;12.82;8.82;;;;;;;16.31;100.00;102009.88;5019667;28;20120;-65
2023/08/20 04:53:56;;;;;;;13.02;8.85;;;;;;;16.24;100.00;102000.66;5013503;28;20050;-64
2023/08/20 04:56:26;;;;;;;12.85;8.27;;;;;;;16.22;100.00;102007.88;5014234;28;20432;-64
2023/08/20 04:58:56;;;;;;;12.18;8.52;;;;;;;16.20;100.00;102002.66;5018919;28;20046;-65
2023/08/20 05:01:24;;;;;;;13.95;8.90;;;;;;;16.19;100.00;102000.13;5015343;28;20381;-65
2023/08/20 05:03:52;;;;;;;11.88;8.40;;;;;;;16.22;100.00;102006.06;5012290;28;20408;-65
2023/08/20 05:06:20;;;;;;;11.60;7.53;;;;;;;16.25;100.00;102012.09;5011564;28;20124;-65
2023/08/20 05:08:51;;;;;;;9.07;7.10;;;;;;;16.21;100.00;102009.69;5014851;28;20073;-65
2023/08/20 05:11:19;;;;;;;11.95;7.38;;;;;;;16.26;100.00;102016.47;5014063;28;20101;-65
2023/08/20 05:13:50;;;;;;;12.38;7.57;;;;;;;16.28;100.00;102018.06;5014591;28;20389;-65
2023/08/20 05:16:18;;;;;;;11.95;8.10;;;;;;;16.23;100.00;102021.00;5014256;28;20048;-65
2023/08/20 05:18:46;;;;;;;12.32;8.27;;;;;;;16.26;100.00;102030.56;5014734;28;20069;-65
2023/08/20 05:21:14;;;;;;;13.30;7.97;;;;;;;16.22;100.00;102037.06;5023143;28;20038;-65
2023/08/20 05:23:43;;;;;;;13.50;8.48;;;;;;;16.19;100.00;102037.28;5011415;28;20571;-65
2023/08/20 05:26:11;;;;;;;14.82;9.38;;;;;;;16.20;100.00;102038.97;5009803;28;20042;-64
2023/08/20 05:28:39;;;;;;;12.35;8.15;;;;;;;16.22;100.00;102026.44;5012403;28;20046;-64
2023/08/20 05:31:10;;;;;;;13.25;8.32;;;;;;;16.24;100.00;102032.50;5030429;28;20049;-65
2023/08/20 05:33:38;;;;;;;12.88;8.50;;;;;;;16.24;100.00;102035.16;5032314;28;20061;-66
2023/08/20 05:36:07;;;;;;;13.20;8.70;;;;;;;16.30;100.00;102034.72;5029312;28;20385;-66
2023/08/20 05:38:35;;;;;;;12.73;8.50;;;;;;;16.33;100.00;102042.47;5029411;28;20128;-66
2023/08/20 05:41:03;;;;;;;11.52;8.60;;;;;;;16.38;100.00;102035.00;5029803;28;20046;-66
2023/08/20 05:43:31;;;;;;;12.48;8.40;;;;;;;16.37;100.00;102035.13;5033072;28;20056;-65
2023/08/20 05:45:59;;;;;;;14.48;10.35;;;;;;;16.39;100.00;102039.38;5018231;28;20131;-55
2023/08/20 05:48:29;;;;;;;21.10;11.18;;;;;;;16.44;100.00;102038.19;5014300;28;20515;-54
2023/08/20 05:50:57;;;;;;;18.02;10.77;;;;;;;16.46;100.00;102034.47;5013704;28;20060;-55
2023/08/20 05:53:26;;;;;;;15.90;10.95;;;;;;;16.50;100.00;102035.94;5013641;28;20103;-56
2023/08/20 05:55:54;;;;;;;16.05;10.77;;;;;;;16.55;100.00;102041.78;5014037;28;20050;-56
2023/08/20 05:58:22;;;;;;;15.98;10.90;;;;;;;16.60;100.00;102049.41;5013543;28;20038;-55
2023/08/20 06:00:52;;;;;;;16.15;11.13;;;;;;;16.66;100.00;102056.09;5013681;28;20417;-55
2023/08/20 06:03:20;;;;;;;21.98;13.90;;;;;;;16.77;100.00;102052.66;5013627;28;20085;-55
2023/08/20 06:05:52;;;;;;;21.95;12.23;;;;;;;16.84;100.00;102045.97;5014734;28;20096;-56
2023/08/20 06:08:21;;;;;;;16.65;11.40;;;;;;;16.92;100.00;102050.72;5029618;28;20042;-56
2023/08/20 06:10:49;;;;;;;19.52;12.20;;;;;;;16.99;100.00;102044.84;5032780;28;20119;-55
2023/08/20 06:13:17;;;;;;;18.60;12.73;;;;;;;17.09;100.00;102046.84;5032355;28;20072;-54
2023/08/20 06:15:45;;;;;;;18.15;12.65;;;;;;;17.20;100.00;102044.22;5032056;28;20069;-55
2023/08/20 06:18:13;;;;;;;22.17;10.95;;;;;;;17.30;100.00;102036.41;5020001;28;20128;-54
2023/08/20 06:20:42;;;;;;;20.35;11.02;;;;;;;17.37;100.00;102037.66;5013210;28;20046;-56
2023/08/20 06:23:12;;;;;;;16.83;9.05;;;;;;;17.45;100.00;102029.09;5013056;28;20170;-55
2023/08/20 06:25:54;;;;;;;16.55;9.73;;;;;;;17.56;100.00;102037.09;5012736;28;20443;-55
2023/08/20 06:28:22;;;;;;;14.77;8.25;;;;;;;17.67;100.00;102046.91;5014100;28;20473;-56
2023/08/20 06:30:50;;;;;;;15.68;8.05;;;;;;;17.76;100.00;102040.06;5025919;28;20054;-55
2023/08/20 06:33:19;;;;;;;12.32;6.65;;;;;;;17.87;100.00;102042.72;5027989;28;20093;-55
2023/08/20 06:35:47;;;;;;;15.85;7.75;;;;;;;17.99;100.00;102044.47;5012387;28;20116;-55
2023/08/20 06:38:16;;;;;;;15.50;7.00;;;;;;;18.12;100.00;102040.84;5012506;28;20405;-55
2023/08/20 06:40:44;;;;;;;11.32;5.65;;;;;;;18.23;100.00;102051.50;5024848;28;20480;-56
2023/08/20 06:43:12;;;;;;;12.30;6.07;;;;;;;18.35;100.00;102050.53;5032494;28;20077;-56
2023/08/20 06:45:40;;;;;;;14.07;5.45;;;;;;;18.48;100.00;102053.06;5031027;28;20049;-55
2023/08/20 06:48:09;;;;;;;12.95;5.20;;;;;;;18.64;100.00;102054.50;5032406;28;20049;-54
2023/08/20 06:50:37;;;;;;;13.30;5.00;;;;;;;18.73;100.00;102056.41;5032437;28;20053;-56
2023/08/20 06:53:06;;;;;;;12.95;4.95;;;;;;;18.89;100.00;102058.72;5032437;28;20053;-56
2023/08/20 06:55:36;;;;;;;10.10;4.20;;;;;;;19.00;100.00;102058.69;5020009;28;20397;-55
2023/08/20 06:58:04;;;;;;;11.55;4.38;;;;;;;19.15;100.00;102063.72;5012738;28;20046;-56
2023/08/20 07:00:32;;;;;;;23.27;5.30;;;;;;;19.29;100.00;102059.91;5009748;28;20488;-55
2023/08/20 07:03:01;;;;;;;13.13;3.78;;;;;;;19.41;100.00;102057.09;5009807;28;20053;-56
2023/08/20 07:05:31;;;;;;;12.00;3.67;;;;;;;19.53;100.00;102057.84;5017247;28;20380;-56
2023/08/20 07:08:00;;;;;;;11.10;3.17;;;;;;;19.65;100.00;102060.47;5031808;28;20037;-55
2023/08/20 07:10:28;;;;;;;9.68;3.45;;;;;;;19.80;100.00;102064.53;5031774;28;20045;-56
2023/08/20 07:12:57;;;;;;;9.73;2.88;;;;;;;19.96;100.00;102063.22;5031773;28;20045;-56
2023/08/20 07:15:25;;;;;;;14.75;3.65;;;;;;;20.08;100.00;102057.69;5030047;28;20049;-55
2023/08/20 07:17:53;;;;;;;11.27;3.03;;;;;;;20.24;100.00;102062.50;5031922;28;20077;-56
2023/08/20 07:20:22;;;;;;;12.13;2.90;;;;;;;20.35;100.00;102061.56;5029828;28;20470;-56
2023/08/20 07:22:50;;;;;;;11.10;2.85;;;;;;;20.49;100.00;102062.19;5031337;28;20072;-56
2023/08/20 07:25:18;;;;;;;6.97;2.28;;;;;;;20.66;100.00;102055.34;5026144;28;20049;-56
2023/08/20 07:27:46;;;;;;;11.68;2.22;;;;;;;20.84;100.00;102061.72;5020474;28;20076;-56
2023/08/20 07:30:16;;;;;;;8.88;2.47;;;;;;;21.01;100.00;102059.34;5031264;28;20124;-56
2023/08/20 07:32:44;;;;;;;11.85;2.90;;;;;;;21.19;100.00;102067.56;5031522;28;20045;-57
2023/08/20 07:35:12;;;;;;;10.25;2.50;;;;;;;21.31;100.00;102074.47;5031395;28;20492;-57
2023/08/20 07:37:40;;;;;;;10.45;2.50;;;;;;;21.42;100.00;102071.63;5031396;28;20044;-56
2023/08/20 07:40:11;;;;;;;6.70;2.15;;;;;;;21.51;100.00;102072.59;5040205;28;20045;-56
2023/08/20 07:42:44;;;;;;;9.00;2.17;;;;;;;21.70;100.00;102063.72;5011774;28;20070;-56
2023/08/20 07:45:13;;;;;;;9.30;2.30;;;;;;;21.81;100.00;102076.09;5012234;28;20038;-56
2023/08/20 07:47:42;;;;;;;7.25;2.10;;;;;;;21.94;100.00;102082.00;5011806;28;20042;-55
2023/08/20 07:50:11;;;;;;;10.00;2.33;;;;;;;22.05;100.00;102091.69;5027029;28;20053;-56
2023/08/20 07:52:41;;;;;;;9.15;2.08;;;;;;;22.27;100.00;102089.66;5011608;28;20069;-56
2023/08/20 07:55:10;;;;;;;7.32;1.83;;;;;;;22.50;100.00;102083.94;5013138;28;20051;-56
2023/08/20 07:57:38;;;;;;;8.15;2.15;;;;;;;22.64;100.00;102075.41;5011616;28;20042;-56
2023/08/20 08:00:07;;;;;;;8.50;1.80;;;;;;;22.79;100.00;102087.28;5010008;28;20113;-57
2023/08/20 08:02:35;;;;;;;13.75;2.13;;;;;;;22.92;100.00;102083.44;5007827;28;20053;-56
2023/08/20 08:05:06;;;;;;;6.07;1.58;;;;;;;23.15;100.00;102083.84;5011281;28;20054;-56
2023/08/20 08:07:34;;;;;;;9.65;1.98;;;;;;;23.26;100.00;102094.34;5027319;28;20050;-56
2023/08/20 08:10:03;;;;;;;8.02;1.95;;;;;;;23.44;100.00;102093.50;5026022;28;20076;-56
2023/08/20 08:12:31;;;;;;;5.85;1.60;;;;;;;23.65;100.00;102095.00;5028944;28;20041;-57
2023/08/20 08:14:59;;;;;;;6.75;1.80;;;;;;;23.85;100.00;102098.34;5029054;28;20065;-57
2023/08/20 08:17:27;;;;;;;7.55;1.88;;;;;;;23.99;100.00;102097.78;5028163;28;20396;-56
2023/08/20 08:19:56;;;;;;;8.10;1.85;;;;;;;24.04;100.00;102095.47;5027122;28;20041;-56
2023/08/20 08:22:26;;;;;;;10.05;2.30;;;;;;;24.20;100.00;102091.16;5026390;28;20049;-57
2023/08/20 08:24:54;;;;;;;7.72;1.90;;;;;;;24.36;100.00;102090.41;5025476;28;20051;-57
2023/08/20 08:27:22;;;;;;;8.40;1.92;;;;;;;24.10;100.00;102091.28;5027707;28;20496;-56
2023/08/20 08:29:51;;;;;;;4.75;1.50;;;;;;;24.36;100.00;102096.63;5028472;28;20069;-54
2023/08/20 08:32:19;;;;;;;7.13;1.48;;;;;;;24.67;100.00;102100.66;5028612;28;20493;-54
2023/08/20 08:34:48;;;;;;;8.95;1.75;;;;;;;24.82;100.00;102107.09;5029597;28;20042;-55
2023/08/20 08:37:16;;;;;;;7.82;1.63;;;;;;;24.89;100.00;102109.97;5028052;28;20045;-56
2023/08/20 08:39:45;;;;;;;9.02;2.00;;;;;;;25.02;100.00;102102.25;5028716;28;20402;-56
2023/08/20 08:42:15;;;;;;;9.25;2.10;;;;;;;25.29;100.00;102111.03;5029874;28;20053;-56
2023/08/20 08:44:44;;;;;;;4.07;1.30;;;;;;;25.43;100.00;102113.09;5031267;28;20045;-56
2023/08/20 08:47:13;;;;;;;7.35;1.42;;;;;;;25.54;100.00;102108.41;5031901;28;20424;-57
2023/08/20 08:49:41;;;;;;;6.80;1.50;;;;;;;25.86;100.00;102114.75;5034591;28;20053;-56
2023/08/20 08:52:10;;;;;;;5.20;1.38;;;;;;;25.90;100.00;102114.22;5027369;28;20049;-55
2023/08/20 08:54:39;;;;;;;6.05;1.45;;;;;;;25.97;100.00;102111.69;5014855;28;20733;-56
2023/08/20 08:57:09;;;;;;;4.95;1.30;;;;;;;25.90;100.00;102116.09;5012131;28;20049;-57
2023/08/20 08:59:37;;;;;;;6.60;1.42;;;;;;;26.11;100.00;102116.41;5011506;28;20046;-56
2023/08/20 09:02:10;;;;;;;6.68;1.67;;;;;;;26.31;100.00;102113.31;5014260;28;20053;-56
2023/08/20 09:04:39;;;;;;;5.47;1.38;;;;;;;26.53;100.00;102108.19;5030388;28;20554;-56
2023/08/20 09:07:13;;;;;;;6.80;1.40;;;;;;;26.43;100.00;102117.31;5031309;28;20416;-56
2023/08/20 09:09:43;;;;;;;4.97;1.15;;;;;;;26.77;100.00;102112.66;5029383;28;20045;-56
2023/08/20 09:12:16;;;;;;;6.05;1.40;;;;;;;27.11;100.00;102120.34;5030373;28;20441;-56
2023/08/20 09:14:47;;;;;;;4.45;1.25;;;;;;;27.09;100.00;102118.84;5025530;28;20088;-56
2023/08/20 09:17:16;;;;;;;4.25;1.40;;;;;;;27.38;100.00;102117.31;5012745;28;20141;-56
2023/08/20 09:19:47;;;;;;;6.82;1.20;;;;;;;27.33;100.00;102117.84;5014283;28;20045;-56
2023/08/20 09:22:16;;;;;;;4.60;1.10;;;;;;;27.58;100.00;102112.25;5014207;28;20054;-56
2023/08/20 09:24:47;;;;;;;4.32;1.00;;;;;;;27.47;96.93;102105.44;5017109;28;20414;-56
2023/08/20 09:27:17;;;;;;;4.85;0.98;;;;;;;27.48;92.54;102112.53;5019671;28;20132;-55
2023/08/20 09:29:46;;;;;;;6.25;1.27;;;;;;;27.59;92.50;102114.78;5030695;28;20075;-57
2023/08/20 09:32:19;;;;;;;5.55;1.00;;;;;;;27.73;95.46;102106.88;5030948;28;20075;-55
2023/08/20 09:34:49;;;;;;;6.70;1.15;;;;;;;27.87;90.10;102108.78;5028525;28;20053;-56
2023/08/20 09:37:20;;;;;;;3.42;0.90;;;;;;;27.98;90.99;102104.78;5031047;28;20050;-56
2023/08/20 09:39:49;;;;;;;4.65;1.00;;;;;;;28.35;86.45;102097.63;5029333;28;20115;-56
2023/08/20 09:42:19;;;;;;;5.85;1.00;;;;;;;28.29;86.92;102090.25;5031890;28;20045;-56
2023/08/20 09:44:48;;;;;;;3.15;0.93;;;;;;;28.52;75.43;102102.81;5029509;28;20080;-56
2023/08/20 09:47:21;;;;;;;3.08;0.77;;;;;;;28.53;80.42;102099.09;5030596;28;20445;-57
2023/08/20 09:49:50;;;;;;;4.60;1.13;;;;;;;28.62;81.91;102106.09;5029701;28;20053;-56
2023/08/20 09:52:26;;;;;;;3.53;0.90;;;;;;;28.78;80.71;102102.31;5031101;28;20049;-57
2023/08/20 09:55:04;;;;;;;4.35;1.25;;;;;;;29.16;82.76;102100.25;5031883;28;20033;-57
2023/08/20 09:57:37;;;;;;;3.70;0.80;;;;;;;28.99;77.79;102105.06;5031582;28;20049;-56
2023/08/20 10:00:09;;;;;;;1.55;0.65;;;;;;;28.91;76.83;102104.34;5029792;28;20046;-56
2023/08/20 10:02:39;;;;;;;3.22;0.80;;;;;;;29.60;81.07;102108.31;5010481;28;20042;-56
2023/08/20 10:05:11;;;;;;;4.90;1.00;;;;;;;29.46;75.94;102102.81;5010374;28;20073;-56
2023/08/20 10:07:40;;;;;;;2.85;0.90;;;;;;;29.38;78.28;102104.81;5009953;28;20104;-56
2023/08/20 10:10:11;;;;;;;4.07;0.98;;;;;;;29.77;72.79;102106.19;5014142;28;20045;-56
2023/08/20 10:12:43;;;;;;;5.50;1.13;;;;;;;29.80;70.49;102108.47;5031464;28;20057;-56
2023/08/20 10:15:13;;;;;;;3.33;0.90;;;;;;;30.02;71.28;102109.28;5033180;28;20512;-57
2023/08/20 10:17:43;;;;;;;3.45;0.98;;;;;;;29.77;69.32;102112.41;5031340;28;20527;-57
2023/08/20 10:20:14;;;;;;;2.60;0.90;;;;;;;29.87;70.00;102111.28;5029645;28;20515;-57
2023/08/20 10:22:44;;;;;;;3.78;1.00;;;;;;;29.34;71.45;102115.19;5027351;28;20120;-56
2023/08/20 10:25:22;;;;;;;5.45;0.90;;;;;;;29.60;73.94;102117.31;5027636;28;20049;-57
2023/08/20 10:27:53;;;;;;;4.65;1.00;;;;;;;30.16;70.43;102113.75;5029746;28;20055;-56
2023/08/20 10:30:27;;;;;;;3.47;0.90;;;;;;;30.10;68.10;102111.81;5028407;28;20131;-57
2023/08/20 10:32:58;;;;;;;2.75;0.80;;;;;;;30.27;67.14;102117.78;5021854;28;20042;-56
2023/08/20 10:35:47;;;;;;;3.45;0.70;;;;;;;30.48;65.08;102116.00;5012334;28;20052;-57
2023/08/20 10:38:17;;;;;;;2.42;0.75;;;;;;;30.87;66.30;102114.47;5010124;28;20073;-55
2023/08/20 10:40:55;;;;;;;3.63;0.70;;;;;;;31.01;65.60;102121.59;5010277;28;20045;-56
2023/08/20 10:43:32;;;;;;;2.10;0.55;;;;;;;30.83;61.11;102116.75;5021584;28;20403;-56
2023/08/20 10:46:05;;;;;;;2.38;0.60;;;;;;;30.81;60.10;102121.56;5017010;28;20049;-56
2023/08/20 10:48:39;;;;;;;1.83;0.63;;;;;;;31.38;60.33;102115.81;5012640;28;20065;-56
2023/08/20 10:51:12;;;;;;;4.25;0.88;;;;;;;31.59;61.85;102109.38;5010919;28;20125;-56
2023/08/20 10:53:42;;;;;;;3.40;0.88;;;;;;;31.60;57.54;102113.75;5032850;28;20053;-56
2023/08/20 10:56:15;;;;;;;3.78;1.00;;;;;;;31.64;54.37;102111.44;5028748;28;20055;-56
2023/08/20 10:58:46;;;;;;;3.47;0.85;;;;;;;31.63;57.08;102118.78;5031012;28;20049;-56
2023/08/20 11:01:16;;;;;;;2.70;0.80;;;;;;;31.58;55.69;102113.09;5029255;28;20574;-57
2023/08/20 11:03:45;;;;;;;9.48;1.55;;;;;;;31.82;58.01;102122.53;5020317;28;20088;-55
2023/08/20 11:06:16;;;;;;;6.63;1.55;;;;;;;32.20;55.99;102112.81;5009221;28;20050;-56
2023/08/20 11:08:45;;;;;;;5.70;1.40;;;;;;;32.39;57.41;102116.53;5011847;28;20471;-56
2023/08/20 11:11:13;;;;;;;4.57;0.80;;;;;;;32.44;55.15;102115.88;5011493;28;20398;-57
2023/08/20 11:13:42;;;;;;;3.28;1.00;;;;;;;32.60;54.50;102114.53;5011678;28;20038;-57
2023/08/20 11:16:12;;;;;;;2.45;0.77;;;;;;;32.30;54.35;102117.81;5029842;28;20115;-56
2023/08/20 11:18:41;;;;;;;3.38;0.90;;;;;;;32.63;54.09;102108.69;5031838;28;20397;-57
2023/08/20 11:21:10;;;;;;;3.88;0.82;;;;;;;32.83;55.19;102117.59;5031747;28;20381;-56
2023/08/20 11:23:41;;;;;;;3.25;0.82;;;;;;;32.36;51.73;102119.69;5027655;28;20504;-57